Tsiigehtchic, Canada
Current Conditions -  °F | °C
As of 11:00 PM on Thursday 18 Dec 2014 (Local Time) from CYEV Reporting Station
Light Snow Light Snow  
Wind Chill: -10°   Ceiling: 1500
Heat Index:   Visibility: 15mi
Dew Point: -2°   Wind: 6mph
Humidity: 85%   Direction: 260°W
Pressure: 29.81"   Gusts: NA
Location:  67.43°N, 133.75°W
Report Text: CYEV 190600Z 26005KT 15SM -SN OVC015 M17/M19 A2981 RMK SC8 SLP102
Loading
Personal Weather Stations






























Interactive Weather Map New forecast layout! Learn more

10-Day Weather Forecast

Advertisements
Track Severe Weather on mobile